Time;durP1;ratioP1;P1;durP2;ratioP2;P2;SDS_P1;SDS_P2;PMS_P1;PMS_P2;Temp;Humidity;BMP_temperature;BMP_pressure;BME280_temperature;BME280_humidity;BME280_pressure;Samples;Min_cycle;Max_cycle;Signal;HPM_P1;HPM_P2
2023/01/05 04:01:45;;;;;;;;;;;10.80;99.90;;;;;;5575622;23;19972;-69
2023/01/05 04:04:14;;;;;;;;;;;10.80;99.90;;;;;;4986642;28;20412;-69
2023/01/05 04:06:41;;;;;;;;;;;10.80;99.90;;;;;;4991181;28;19926;-69
2023/01/05 04:09:09;;;;;;;;;;;10.80;99.90;;;;;;4987661;28;19929;-67
2023/01/05 04:11:38;;;;;;;;;;;10.80;99.90;;;;;;4972141;28;19933;-68
2023/01/05 04:14:07;;;;;;;;;;;10.80;99.90;;;;;;4970586;28;19931;-70
2023/01/05 04:16:35;;;;;;;;;;;10.80;99.90;;;;;;4970496;28;19933;-69
2023/01/05 04:19:11;;;;;;;;;;;10.80;99.90;;;;;;4968271;28;19930;-68
2023/01/05 04:21:38;;;;;;;;;;;10.90;99.90;;;;;;4970924;28;19953;-68
2023/01/05 04:24:05;;;;;;;;;;;10.90;99.90;;;;;;4970991;28;19926;-68
2023/01/05 04:26:36;;;;;;;;;;;10.90;99.90;;;;;;4969740;28;19985;-69
2023/01/05 04:29:03;;;;;;;;;;;10.80;99.90;;;;;;4984246;28;19957;-70
2023/01/05 04:31:32;;;;;;;;;;;10.80;99.90;;;;;;4970936;28;19926;-68
2023/01/05 04:33:59;;;;;;;;;;;10.80;99.90;;;;;;4970695;28;19930;-69
2023/01/05 04:36:28;;;;;;;;;;;10.80;99.90;;;;;;4966382;28;19933;-68
2023/01/05 04:38:57;;;;;;;;;;;10.80;99.90;;;;;;4986465;28;20013;-69
2023/01/05 04:41:24;;;;;;;;;;;10.80;99.90;;;;;;4970690;28;20361;-69
2023/01/05 04:43:53;;;;;;;;;;;10.80;99.90;;;;;;4959645;28;19973;-70
2023/01/05 04:46:20;;;;;;;;;;;10.80;99.90;;;;;;4970761;28;19926;-68
2023/01/05 04:48:50;;;;;;;;;;;10.70;99.90;;;;;;4970133;28;19926;-69
2023/01/05 04:51:19;;;;;;;;;;;10.70;99.90;;;;;;4970506;28;19930;-68
2023/01/05 04:53:47;;;;;;;;;;;10.70;99.90;;;;;;4970700;28;19930;-68
2023/01/05 04:56:17;;;;;;;;;;;10.70;99.90;;;;;;4970950;28;19949;-68
2023/01/05 04:58:45;;;;;;;;;;;10.80;99.90;;;;;;4970610;28;19926;-69
2023/01/05 05:01:13;;;;;;;;;;;10.80;99.90;;;;;;4970500;28;19965;-68
2023/01/05 05:03:41;;;;;;;;;;;10.70;99.90;;;;;;4970678;28;19977;-69
2023/01/05 05:06:10;;;;;;;;;;;10.60;99.90;;;;;;4970787;28;19933;-68
2023/01/05 05:08:37;;;;;;;;;;;10.60;99.90;;;;;;4970005;28;20002;-70
2023/01/05 05:11:06;;;;;;;;;;;10.60;99.90;;;;;;4970036;28;19932;-68
2023/01/05 05:13:36;;;;;;;;;;;10.50;99.90;;;;;;4970553;28;19926;-69
2023/01/05 05:16:03;;;;;;;;;;;10.50;99.90;;;;;;4970307;28;19933;-68
2023/01/05 05:18:32;;;;;;;;;;;10.50;99.90;;;;;;4970149;28;19990;-69
2023/01/05 05:21:00;;;;;;;;;;;10.50;99.90;;;;;;4970131;28;19929;-69
2023/01/05 05:23:31;;;;;;;;;;;10.60;99.90;;;;;;4970719;28;19972;-68
2023/01/05 05:25:59;;;;;;;;;;;10.60;99.90;;;;;;4970308;28;20013;-70
2023/01/05 05:28:28;;;;;;;;;;;10.60;99.90;;;;;;4970228;28;20389;-69
2023/01/05 05:30:55;;;;;;;;;;;10.60;99.90;;;;;;4966536;28;19993;-71
2023/01/05 05:33:22;;;;;;;;;;;10.60;99.90;;;;;;4970128;28;20304;-69
2023/01/05 05:35:48;;;;;;;;;;;10.60;99.90;;;;;;4970310;28;19926;-68
2023/01/05 05:38:15;;;;;;;;;;;10.60;99.90;;;;;;4970136;28;20451;-69
2023/01/05 05:40:42;;;;;;;;;;;10.60;99.90;;;;;;4969941;28;20451;-69
2023/01/05 05:43:09;;;;;;;;;;;10.60;99.90;;;;;;4970101;28;19926;-69
2023/01/05 05:45:37;;;;;;;;;;;10.60;99.90;;;;;;4970237;28;19930;-69
2023/01/05 05:48:05;;;;;;;;;;;10.60;99.90;;;;;;4973521;28;19933;-69
2023/01/05 05:50:31;;;;;;;;;;;10.60;99.90;;;;;;4974956;28;19926;-69
2023/01/05 05:53:05;;;;;;;;;;;10.60;99.90;;;;;;4973711;28;19926;-68
2023/01/05 05:55:33;;;;;;;;;;;10.60;99.90;;;;;;4973571;28;19973;-69
2023/01/05 05:58:00;;;;;;;;;;;10.60;99.90;;;;;;4973347;28;20401;-69
2023/01/05 06:00:26;;;;;;;;;;;10.60;99.90;;;;;;4968241;28;19949;-69
2023/01/05 06:02:55;;;;;;;;;;;10.60;99.90;;;;;;4966997;28;19926;-69
2023/01/05 06:05:21;;;;;;;;;;;10.60;99.90;;;;;;4973491;28;20022;-69
2023/01/05 06:07:48;;;;;;;;;;;10.60;99.90;;;;;;4992346;28;19926;-69
2023/01/05 06:10:15;;;;;;;;;;;10.50;99.90;;;;;;4972746;28;19984;-69
2023/01/05 06:12:41;;;;;;;;;;;10.50;99.90;;;;;;4972735;28;19926;-68
2023/01/05 06:15:09;;;;;;;;;;;10.50;99.90;;;;;;4973113;28;19930;-68
2023/01/05 06:17:36;;;;;;;;;;;10.50;99.90;;;;;;4973081;28;19940;-69
2023/01/05 06:20:05;;;;;;;;;;;10.50;99.90;;;;;;4972648;28;19934;-69
2023/01/05 06:22:31;;;;;;;;;;;10.50;99.90;;;;;;4978319;28;19926;-69
2023/01/05 06:24:58;;;;;;;;;;;10.60;99.90;;;;;;4973056;28;19929;-69
2023/01/05 06:27:25;;;;;;;;;;;10.60;99.90;;;;;;4968703;28;19934;-69
2023/01/05 06:29:51;;;;;;;;;;;10.60;99.90;;;;;;4972386;28;20309;-68
2023/01/05 06:32:18;;;;;;;;;;;10.60;99.90;;;;;;4973103;28;20352;-68
2023/01/05 06:34:45;;;;;;;;;;;10.60;99.90;;;;;;4973052;28;19933;-69
2023/01/05 06:37:13;;;;;;;;;;;10.60;99.90;;;;;;4973146;28;19926;-69
2023/01/05 06:39:40;;;;;;;;;;;10.60;99.90;;;;;;4972123;28;19930;-70
2023/01/05 06:42:07;;;;;;;;;;;10.60;99.90;;;;;;4972715;28;20377;-68
2023/01/05 06:44:34;;;;;;;;;;;10.60;99.90;;;;;;4972977;28;19926;-69
2023/01/05 06:47:01;;;;;;;;;;;10.50;99.90;;;;;;4973253;28;19934;-68
2023/01/05 06:49:27;;;;;;;;;;;10.60;99.90;;;;;;4972222;28;19933;-68
2023/01/05 06:51:54;;;;;;;;;;;10.60;99.90;;;;;;4972600;28;19930;-68
2023/01/05 06:54:22;;;;;;;;;;;10.60;99.90;;;;;;4972476;28;20461;-69
2023/01/05 06:56:49;;;;;;;;;;;10.60;99.90;;;;;;4972440;28;19949;-68
2023/01/05 06:59:16;;;;;;;;;;;10.60;99.90;;;;;;4972000;28;19961;-68
2023/01/05 07:01:43;;;;;;;;;;;10.60;99.90;;;;;;4972357;28;19926;-68
2023/01/05 07:04:09;;;;;;;;;;;10.60;99.90;;;;;;4972455;28;19941;-71
2023/01/05 07:06:36;;;;;;;;;;;10.60;99.90;;;;;;4972450;28;20344;-69
2023/01/05 07:09:03;;;;;;;;;;;10.60;99.90;;;;;;4968983;28;20381;-69
2023/01/05 07:11:32;;;;;;;;;;;10.60;99.90;;;;;;4972324;28;19930;-71
2023/01/05 07:13:59;;;;;;;;;;;10.60;99.90;;;;;;4972288;28;19933;-70
2023/01/05 07:16:25;;;;;;;;;;;10.60;99.90;;;;;;4972779;28;19926;-70
2023/01/05 07:18:52;;;;;;;;;;;10.60;99.90;;;;;;4971626;28;20349;-70
2023/01/05 07:21:19;;;;;;;;;;;10.60;99.90;;;;;;4971903;28;19926;-70
2023/01/05 07:23:46;;;;;;;;;;;10.60;99.90;;;;;;4972041;28;19953;-70
2023/01/05 07:26:12;;;;;;;;;;;10.60;99.90;;;;;;4972129;28;19942;-71
2023/01/05 07:28:41;;;;;;;;;;;10.70;99.90;;;;;;4971779;28;19977;-71
2023/01/05 07:31:08;;;;;;;;;;;10.70;99.90;;;;;;4971482;28;19926;-67
2023/01/05 07:33:35;;;;;;;;;;;10.60;99.90;;;;;;4971953;28;19926;-69
2023/01/05 07:36:02;;;;;;;;;;;10.70;99.90;;;;;;4971422;28;19938;-71
2023/01/05 07:38:29;;;;;;;;;;;10.70;99.90;;;;;;4971451;28;19981;-69
2023/01/05 07:40:58;;;;;;;;;;;10.70;99.90;;;;;;4971387;28;19926;-69
2023/01/05 07:43:25;;;;;;;;;;;10.70;99.90;;;;;;4967741;28;19930;-71
2023/01/05 07:45:56;;;;;;;;;;;10.70;99.90;;;;;;4975307;28;19981;-80
2023/01/05 07:48:23;;;;;;;;;;;10.60;99.90;;;;;;4971160;28;19949;-68
2023/01/05 07:50:49;;;;;;;;;;;10.60;99.90;;;;;;4966585;28;19926;-68
2023/01/05 07:53:16;;;;;;;;;;;10.70;99.90;;;;;;4972613;28;19938;-68
2023/01/05 07:55:43;;;;;;;;;;;10.70;99.90;;;;;;4972561;28;19926;-69
2023/01/05 07:58:10;;;;;;;;;;;10.70;99.90;;;;;;4972275;28;19926;-68
2023/01/05 08:00:36;;;;;;;;;;;10.70;99.90;;;;;;4972050;28;19933;-71
2023/01/05 08:03:05;;;;;;;;;;;10.70;99.90;;;;;;4968179;28;19926;-68
2023/01/05 08:05:33;;;;;;;;;;;10.60;99.90;;;;;;4976538;28;19956;-70
2023/01/05 08:07:59;;;;;;;;;;;10.70;99.90;;;;;;4972205;28;19961;-71
2023/01/05 08:10:29;;;;;;;;;;;10.70;99.90;;;;;;4968549;28;19941;-71
2023/01/05 08:15:44;;;;;;;;;;;10.70;99.90;;;;;;4973151;28;19958;-70
2023/01/05 08:18:12;;;;;;;;;;;10.70;99.90;;;;;;4971961;28;20544;-69
2023/01/05 08:20:40;;;;;;;;;;;10.70;99.90;;;;;;4971880;28;19934;-69
2023/01/05 08:23:07;;;;;;;;;;;10.70;99.90;;;;;;4972055;28;19973;-68
2023/01/05 08:25:34;;;;;;;;;;;10.70;99.90;;;;;;4971928;28;20368;-69
2023/01/05 08:28:01;;;;;;;;;;;10.70;99.90;;;;;;4963971;28;19926;-69
2023/01/05 08:30:27;;;;;;;;;;;10.70;99.90;;;;;;4971576;28;19933;-69
2023/01/05 08:32:54;;;;;;;;;;;10.70;99.90;;;;;;4977692;28;20389;-70
2023/01/05 08:35:22;;;;;;;;;;;10.70;99.90;;;;;;4971870;28;19930;-69
2023/01/05 08:37:49;;;;;;;;;;;10.70;99.90;;;;;;4972103;28;19947;-68
2023/01/05 08:40:16;;;;;;;;;;;10.70;99.90;;;;;;4971422;28;19926;-69
2023/01/05 08:42:46;;;;;;;;;;;10.70;99.90;;;;;;4971453;28;19934;-69
2023/01/05 08:45:13;;;;;;;;;;;10.70;99.90;;;;;;4971823;28;19926;-69
2023/01/05 08:47:40;;;;;;;;;;;10.70;99.90;;;;;;4971681;28;19928;-69
2023/01/05 08:50:08;;;;;;;;;;;10.80;99.90;;;;;;4971108;28;19927;-69
2023/01/05 08:52:36;;;;;;;;;;;10.80;99.90;;;;;;4972002;28;19926;-69
2023/01/05 08:55:04;;;;;;;;;;;10.70;99.90;;;;;;4971591;28;19958;-69
2023/01/05 08:57:31;;;;;;;;;;;10.70;99.90;;;;;;4971780;28;19926;-68
2023/01/05 08:59:58;;;;;;;;;;;10.70;99.90;;;;;;4971009;28;19981;-69
2023/01/05 09:02:24;;;;;;;;;;;10.70;99.90;;;;;;4973364;28;19930;-68
2023/01/05 09:04:51;;;;;;;;;;;10.70;99.90;;;;;;4966468;28;19926;-66
2023/01/05 09:07:18;;;;;;;;;;;10.70;99.90;;;;;;4968158;28;19927;-68
2023/01/05 09:09:47;;;;;;;;;;;10.70;99.90;;;;;;4963936;28;20313;-68
2023/01/05 09:12:14;;;;;;;;;;;10.70;99.90;;;;;;4971130;28;19926;-68
2023/01/05 09:14:40;;;;;;;;;;;10.80;99.90;;;;;;4970796;28;19933;-68
2023/01/05 09:17:07;;;;;;;;;;;10.80;99.90;;;;;;4970377;28;19927;-69
2023/01/05 09:19:34;;;;;;;;;;;10.80;99.90;;;;;;4970920;28;19926;-68
2023/01/05 09:22:01;;;;;;;;;;;10.80;99.90;;;;;;4973330;28;20278;-68
2023/01/05 09:24:28;;;;;;;;;;;10.80;99.90;;;;;;4975004;28;19926;-68
2023/01/05 09:26:56;;;;;;;;;;;10.90;99.90;;;;;;4975094;28;19933;-69
2023/01/05 09:29:23;;;;;;;;;;;10.90;99.90;;;;;;4974478;28;19929;-69
2023/01/05 09:31:50;;;;;;;;;;;10.90;99.90;;;;;;4980213;28;19973;-68
2023/01/05 09:34:17;;;;;;;;;;;10.90;99.90;;;;;;4975192;28;19926;-69
2023/01/05 09:36:44;;;;;;;;;;;10.90;99.90;;;;;;4975074;28;20137;-69
2023/01/05 09:39:11;;;;;;;;;;;10.90;99.90;;;;;;4967183;28;20352;-69
2023/01/05 09:41:39;;;;;;;;;;;11.00;99.90;;;;;;4974732;28;19930;-69
2023/01/05 09:44:12;;;;;;;;;;;11.00;99.90;;;;;;4973256;28;20312;-70
2023/01/05 09:46:39;;;;;;;;;;;11.10;99.90;;;;;;4993337;28;19930;-69
2023/01/05 09:49:11;;;;;;;;;;;11.10;99.90;;;;;;4975749;28;20418;-69
2023/01/05 09:51:38;;;;;;;;;;;11.10;99.90;;;;;;4990159;28;20397;-69
2023/01/05 09:54:05;;;;;;;;;;;11.10;99.90;;;;;;4972529;28;19980;-70
2023/01/05 09:56:34;;;;;;;;;;;11.20;99.90;;;;;;4991226;28;19929;-69
2023/01/05 09:59:04;;;;;;;;;;;11.30;99.90;;;;;;4970805;28;19956;-69
2023/01/05 10:01:33;;;;;;;;;;;11.40;99.90;;;;;;4985850;28;19937;-69
2023/01/05 10:04:03;;;;;;;;;;;11.40;99.90;;;;;;4974437;28;20404;-69
2023/01/05 10:06:33;;;;;;;;;;;11.40;99.90;;;;;;4974320;28;19926;-69
2023/01/05 10:09:00;;;;;;;;;;;11.40;99.90;;;;;;4987681;28;19957;-70
2023/01/05 10:14:17;;;;;;;;;;;11.50;99.90;;;;;;4973511;28;19922;-69
2023/01/05 10:16:46;;;;;;;;;;;11.70;99.90;;;;;;4973609;28;19934;-67
2023/01/05 10:19:13;;;;;;;;;;;11.80;99.90;;;;;;4966582;28;19930;-66
2023/01/05 10:21:49;;;;;;;;;;;11.90;99.90;;;;;;4985670;28;19926;-68
2023/01/05 10:24:24;;;;;;;;;;;12.00;99.90;;;;;;4974460;28;19926;-69
2023/01/05 10:26:55;;;;;;;;;;;12.20;99.90;;;;;;4974302;28;19930;-68
2023/01/05 10:29:24;;;;;;;;;;;12.20;99.90;;;;;;4966147;28;19930;-67
2023/01/05 10:31:55;;;;;;;;;;;12.10;99.90;;;;;;4973657;28;19926;-68
2023/01/05 10:34:23;;;;;;;;;;;12.20;99.90;;;;;;4967947;28;19933;-68
2023/01/05 10:36:53;;;;;;;;;;;12.40;99.90;;;;;;4989940;28;19927;-69
2023/01/05 10:39:24;;;;;;;;;;;12.50;99.90;;;;;;4973867;28;19926;-69
2023/01/05 10:41:57;;;;;;;;;;;12.50;99.90;;;;;;4975135;28;19933;-68
2023/01/05 10:44:41;;;;;;;;;;;14.70;99.90;;;;;;4964732;28;20277;-68
2023/01/05 10:47:09;;;;;;;;;;;14.30;99.90;;;;;;4974325;28;19934;-67
2023/01/05 10:49:37;;;;;;;;;;;13.60;99.90;;;;;;4973270;28;19926;-66
2023/01/05 10:52:04;;;;;;;;;;;14.70;99.90;;;;;;4973667;28;19941;-67
2023/01/05 10:54:35;;;;;;;;;;;14.20;99.90;;;;;;4973865;28;19926;-67
2023/01/05 10:57:23;;;;;;;;;;;14.10;99.90;;;;;;4968288;28;19926;-68
2023/01/05 10:59:54;;;;;;;;;;;14.60;99.90;;;;;;4967654;28;19927;-67
2023/01/05 11:02:23;;;;;;;;;;;17.40;99.90;;;;;;4973623;28;20274;-69
2023/01/05 11:04:50;;;;;;;;;;;18.10;99.90;;;;;;4973785;28;19926;-66
2023/01/05 11:07:17;;;;;;;;;;;19.20;99.90;;;;;;4965665;28;19927;-65
2023/01/05 11:09:44;;;;;;;;;;;17.70;99.90;;;;;;4970734;28;19977;-66
2023/01/05 11:12:16;;;;;;;;;;;15.70;99.90;;;;;;4964624;28;19927;-68
2023/01/05 11:14:43;;;;;;;;;;;15.40;99.90;;;;;;4973469;28;19926;-66
2023/01/05 11:17:16;;;;;;;;;;;15.40;99.90;;;;;;4973217;28;19930;-66
2023/01/05 11:19:45;;;;;;;;;;;16.70;99.90;;;;;;4972864;28;20037;-68
2023/01/05 11:22:27;;;;;;;;;;;16.50;99.90;;;;;;4971609;28;19981;-67
2023/01/05 11:24:54;;;;;;;;;;;17.10;99.90;;;;;;4970083;28;20020;-67
2023/01/05 11:27:24;;;;;;;;;;;17.20;99.90;;;;;;4981532;28;20381;-68
2023/01/05 11:30:06;;;;;;;;;;;17.70;99.90;;;;;;4966110;28;19926;-67
2023/01/05 11:32:33;;;;;;;;;;;15.70;99.90;;;;;;4967461;28;19977;-68
2023/01/05 11:35:01;;;;;;;;;;;16.60;99.90;;;;;;4971793;28;20495;-64
2023/01/05 11:37:29;;;;;;;;;;;17.70;99.90;;;;;;4974247;28;19937;-68
2023/01/05 11:39:56;;;;;;;;;;;18.80;99.90;;;;;;4970629;28;19955;-68
2023/01/05 11:42:29;;;;;;;;;;;17.90;99.90;;;;;;4964840;28;20380;-70
2023/01/05 11:44:58;;;;;;;;;;;17.80;99.90;;;;;;4970043;28;19927;-69
2023/01/05 11:47:26;;;;;;;;;;;16.20;99.90;;;;;;4972335;28;19926;-69
2023/01/05 11:49:58;;;;;;;;;;;17.50;99.90;;;;;;4968793;28;19934;-68
2023/01/05 11:52:28;;;;;;;;;;;16.50;99.90;;;;;;4987866;28;19934;-69
2023/01/05 11:54:55;;;;;;;;;;;16.90;99.90;;;;;;4972469;28;19930;-69
2023/01/05 11:57:22;;;;;;;;;;;16.90;99.90;;;;;;4972428;28;19926;-69
2023/01/05 11:59:50;;;;;;;;;;;16.50;99.90;;;;;;4972047;28;19966;-68
2023/01/05 12:02:26;;;;;;;;;;;17.80;99.90;;;;;;4972003;28;19926;-67
2023/01/05 12:05:00;;;;;;;;;;;16.00;99.90;;;;;;4972310;28;19933;-68
2023/01/05 12:07:32;;;;;;;;;;;14.60;99.90;;;;;;4972392;28;19926;-68
2023/01/05 12:10:03;;;;;;;;;;;14.10;99.90;;;;;;4972058;28;19930;-68
2023/01/05 12:12:38;;;;;;;;;;;14.50;99.90;;;;;;4972017;28;19926;-68
2023/01/05 12:15:33;;;;;;;;;;;14.60;99.90;;;;;;4972416;28;19930;-68
2023/01/05 12:18:07;;;;;;;;;;;14.20;99.90;;;;;;4972214;28;19926;-68
2023/01/05 12:20:47;;;;;;;;;;;13.80;99.90;;;;;;4971887;28;19926;-68
2023/01/05 12:23:26;;;;;;;;;;;14.40;99.90;;;;;;4963474;28;19926;-69
2023/01/05 12:25:57;;;;;;;;;;;15.40;99.90;;;;;;4972208;28;19933;-65
2023/01/05 12:28:31;;;;;;;;;;;15.90;99.90;;;;;;4967613;28;19926;-68
2023/01/05 12:31:01;;;;;;;;;;;14.80;99.90;;;;;;4972005;28;19953;-64
2023/01/05 12:33:33;;;;;;;;;;;14.40;99.90;;;;;;4969409;28;19931;-68
2023/01/05 12:36:11;;;;;;;;;;;14.00;99.90;;;;;;4973509;28;20364;-68
2023/01/05 12:38:45;;;;;;;;;;;13.70;99.90;;;;;;4965801;28;19932;-68
2023/01/05 12:41:19;;;;;;;;;;;13.80;99.90;;;;;;4970524;28;19926;-68
2023/01/05 12:43:53;;;;;;;;;;;14.60;99.90;;;;;;4971877;28;19937;-68
2023/01/05 12:46:27;;;;;;;;;;;14.00;99.90;;;;;;4966522;28;19926;-69
2023/01/05 12:48:55;;;;;;;;;;;13.60;99.90;;;;;;4986387;28;19926;-69
2023/01/05 12:51:25;;;;;;;;;;;13.70;99.90;;;;;;4966244;28;19930;-70
2023/01/05 12:53:54;;;;;;;;;;;14.10;99.90;;;;;;4966858;28;20370;-69
2023/01/05 12:56:25;;;;;;;;;;;15.10;99.90;;;;;;4973564;28;19993;-71
2023/01/05 12:58:57;;;;;;;;;;;14.60;99.90;;;;;;4966890;28;19930;-71
2023/01/05 13:01:27;;;;;;;;;;;14.90;99.90;;;;;;4971552;28;20005;-70
2023/01/05 13:03:55;;;;;;;;;;;14.20;99.90;;;;;;4973885;28;19953;-67
2023/01/05 13:06:23;;;;;;;;;;;13.40;99.90;;;;;;4970431;28;19933;-68
2023/01/05 13:08:52;;;;;;;;;;;13.00;99.90;;;;;;4968196;28;20013;-68
2023/01/05 13:11:21;;;;;;;;;;;12.60;99.90;;;;;;4975242;28;20008;-68
2023/01/05 13:13:50;;;;;;;;;;;12.50;99.90;;;;;;4973250;28;19933;-69
2023/01/05 13:16:19;;;;;;;;;;;12.30;99.90;;;;;;4969927;28;19942;-69
2023/01/05 13:18:50;;;;;;;;;;;12.20;99.90;;;;;;4974026;28;19929;-68
2023/01/05 13:21:17;;;;;;;;;;;11.90;99.90;;;;;;4972026;28;19934;-69
2023/01/05 13:23:46;;;;;;;;;;;11.80;99.90;;;;;;4973981;28;19973;-68
2023/01/05 13:26:14;;;;;;;;;;;11.80;99.90;;;;;;4969459;28;20336;-69
2023/01/05 13:28:43;;;;;;;;;;;11.80;99.90;;;;;;4966543;28;19933;-69
2023/01/05 13:31:24;;;;;;;;;;;12.00;99.90;;;;;;4967416;28;20392;-69
2023/01/05 13:34:01;;;;;;;;;;;12.00;99.90;;;;;;4970827;28;19977;-70
2023/01/05 13:36:37;;;;;;;;;;;12.00;99.90;;;;;;4973756;28;19926;-68
2023/01/05 13:39:17;;;;;;;;;;;12.10;99.90;;;;;;4979402;28;19934;-68
2023/01/05 13:41:51;;;;;;;;;;;12.00;99.90;;;;;;4969435;28;19933;-68
2023/01/05 13:44:36;;;;;;;;;;;12.10;99.90;;;;;;4969553;28;20353;-70
2023/01/05 13:47:16;;;;;;;;;;;12.10;99.90;;;;;;4969685;28;19981;-68
2023/01/05 13:50:02;;;;;;;;;;;12.10;99.90;;;;;;4988114;28;19927;-68
2023/01/05 13:52:34;;;;;;;;;;;12.20;99.90;;;;;;4981578;28;19929;-69
2023/01/05 13:55:02;;;;;;;;;;;12.20;99.90;;;;;;4971305;28;19934;-68
2023/01/05 13:57:31;;;;;;;;;;;12.20;99.90;;;;;;4971774;28;19926;-69
2023/01/05 13:59:59;;;;;;;;;;;12.00;99.90;;;;;;4969135;28;19938;-68
2023/01/05 14:02:31;;;;;;;;;;;12.10;99.90;;;;;;4969146;28;20444;-69
2023/01/05 14:04:58;;;;;;;;;;;12.00;99.90;;;;;;4970227;28;19926;-69
2023/01/05 14:07:26;;;;;;;;;;;12.00;99.90;;;;;;4972128;28;19937;-70
2023/01/05 14:09:55;;;;;;;;;;;11.90;99.90;;;;;;4987496;28;19934;-69
2023/01/05 14:12:26;;;;;;;;;;;11.90;99.90;;;;;;4972154;28;19934;-68
2023/01/05 14:15:04;;;;;;;;;;;11.90;99.90;;;;;;4982512;28;19930;-70
2023/01/05 14:17:52;;;;;;;;;;;11.90;99.90;;;;;;4980985;28;19927;-68
2023/01/05 14:20:31;;;;;;;;;;;11.90;99.90;;;;;;4986864;28;19927;-68
2023/01/05 14:22:59;;;;;;;;;;;11.80;99.90;;;;;;4969269;28;20348;-69
2023/01/05 14:25:45;;;;;;;;;;;11.80;99.90;;;;;;4968882;28;19926;-69
2023/01/05 14:28:23;;;;;;;;;;;11.70;99.90;;;;;;4985434;28;19926;-68
2023/01/05 14:30:51;;;;;;;;;;;11.70;99.90;;;;;;4974039;28;19926;-68
2023/01/05 14:33:19;;;;;;;;;;;11.70;99.90;;;;;;4970862;28;19930;-69
2023/01/05 14:35:47;;;;;;;;;;;11.70;99.90;;;;;;4973978;28;19933;-68
2023/01/05 14:38:19;;;;;;;;;;;11.70;99.90;;;;;;4974040;28;19933;-70
2023/01/05 14:40:48;;;;;;;;;;;11.70;99.90;;;;;;4976750;28;19929;-68
2023/01/05 14:43:29;;;;;;;;;;;11.70;99.90;;;;;;4979452;28;19934;-68
2023/01/05 14:45:58;;;;;;;;;;;11.70;99.90;;;;;;4989181;28;20129;-68
2023/01/05 14:48:28;;;;;;;;;;;11.70;99.90;;;;;;4978102;28;19929;-69
2023/01/05 14:51:08;;;;;;;;;;;11.70;99.90;;;;;;4968138;28;19926;-69
2023/01/05 14:53:43;;;;;;;;;;;11.70;99.90;;;;;;4973218;28;20353;-68
2023/01/05 14:56:14;;;;;;;;;;;11.70;99.90;;;;;;4971981;28;20375;-69
2023/01/05 14:58:52;;;;;;;;;;;11.60;99.90;;;;;;4972554;28;19930;-68
2023/01/05 15:01:23;;;;;;;;;;;11.50;99.90;;;;;;4972620;28;19937;-69
2023/01/05 15:03:53;;;;;;;;;;;11.50;99.90;;;;;;4973176;28;19989;-70
2023/01/05 15:06:26;;;;;;;;;;;11.60;99.90;;;;;;4971385;28;19930;-69
2023/01/05 15:09:11;;;;;;;;;;;11.50;99.90;;;;;;4967308;28;19933;-68
2023/01/05 15:11:58;;;;;;;;;;;11.50;99.90;;;;;;4982919;28;19931;-68
2023/01/05 15:14:51;;;;;;;;;;;11.50;99.90;;;;;;4966337;28;20297;-69
2023/01/05 15:17:48;;;;;;;;;;;11.50;99.90;;;;;;4973218;28;19933;-69
2023/01/05 15:20:24;;;;;;;;;;;11.40;99.90;;;;;;4975672;28;19941;-70
2023/01/05 15:22:59;;;;;;;;;;;11.30;99.90;;;;;;4970203;28;19933;-69
2023/01/05 15:25:35;;;;;;;;;;;11.30;99.90;;;;;;4969121;28;19938;-71
2023/01/05 15:28:09;;;;;;;;;;;11.10;99.90;;;;;;4971585;28;19926;-71
2023/01/05 15:30:45;;;;;;;;;;;11.10;99.90;;;;;;4973189;28;19929;-70
2023/01/05 15:33:13;;;;;;;;;;;11.00;99.90;;;;;;4973833;28;19929;-72
2023/01/05 15:35:43;;;;;;;;;;;10.80;99.90;;;;;;4973122;28;19930;-72
2023/01/05 15:38:18;;;;;;;;;;;10.70;99.90;;;;;;4973237;28;19926;-71
2023/01/05 15:40:46;;;;;;;;;;;10.70;99.90;;;;;;4971560;28;19933;-71
2023/01/05 15:43:14;;;;;;;;;;;10.60;99.90;;;;;;4969550;28;19950;-72
2023/01/05 15:45:42;;;;;;;;;;;10.60;99.90;;;;;;4969028;28;19926;-73
2023/01/05 15:48:11;;;;;;;;;;;10.50;99.90;;;;;;4975503;28;20016;-71
2023/01/05 15:50:39;;;;;;;;;;;10.50;99.90;;;;;;4971862;28;19979;-72
2023/01/05 15:53:06;;;;;;;;;;;10.40;99.90;;;;;;4972689;28;19930;-72
2023/01/05 15:55:34;;;;;;;;;;;10.40;99.90;;;;;;4972043;28;19993;-70
2023/01/05 15:58:02;;;;;;;;;;;10.40;99.90;;;;;;4972511;28;19934;-69
2023/01/05 16:00:30;;;;;;;;;;;10.40;99.90;;;;;;4971836;28;20341;-70
2023/01/05 16:02:57;;;;;;;;;;;10.30;99.90;;;;;;5009866;23;20352;-75
2023/01/05 16:05:24;;;;;;;;;;;10.20;99.90;;;;;;4999494;28;19930;-75
2023/01/05 16:07:54;;;;;;;;;;;10.20;99.90;;;;;;5001889;28;20020;-75
2023/01/05 16:10:22;;;;;;;;;;;10.10;99.90;;;;;;5002617;28;19934;-73
2023/01/05 16:12:52;;;;;;;;;;;10.10;99.90;;;;;;5016420;28;19961;-72
2023/01/05 16:15:20;;;;;;;;;;;10.10;99.90;;;;;;5000124;28;20422;-76
2023/01/05 16:17:48;;;;;;;;;;;10.10;99.90;;;;;;4985570;28;19956;-74
2023/01/05 16:20:16;;;;;;;;;;;10.10;99.90;;;;;;5004170;28;19934;-75
2023/01/05 16:22:46;;;;;;;;;;;10.10;99.90;;;;;;4990629;28;19929;-76
2023/01/05 16:25:16;;;;;;;;;;;10.20;99.90;;;;;;4990750;28;19929;-76
2023/01/05 16:27:44;;;;;;;;;;;10.20;99.90;;;;;;4990530;28;19934;-78
2023/01/05 16:30:26;;;;;;;;;;;10.20;99.90;;;;;;4988970;28;19926;-77
2023/01/05 16:32:55;;;;;;;;;;;10.20;99.90;;;;;;4989583;28;19926;-78
2023/01/05 16:35:24;;;;;;;;;;;10.20;99.90;;;;;;4991176;28;19926;-78
2023/01/05 16:38:18;;;;;;;;;;;10.20;99.90;;;;;;4994326;28;19926;-77
2023/01/05 16:41:03;;;;;;;;;;;10.20;99.90;;;;;;4960135;28;20347;-79
2023/01/05 16:43:31;;;;;;;;;;;10.10;99.90;;;;;;4991847;28;20388;-77
2023/01/05 16:46:24;;;;;;;;;;;10.10;99.90;;;;;;4990637;28;19976;-77
2023/01/05 16:48:52;;;;;;;;;;;10.10;99.90;;;;;;4985043;28;20466;-75
2023/01/05 16:51:19;;;;;;;;;;;10.10;99.90;;;;;;4990137;28;19933;-77
2023/01/05 16:53:47;;;;;;;;;;;10.10;99.90;;;;;;4987347;28;19934;-77
2023/01/05 16:56:18;;;;;;;;;;;10.10;99.90;;;;;;4990413;28;19929;-76
2023/01/05 16:58:45;;;;;;;;;;;10.10;99.90;;;;;;4995083;28;19925;-76
2023/01/05 17:01:18;;;;;;;;;;;10.10;99.90;;;;;;4989589;28;19934;-77
2023/01/05 17:03:45;;;;;;;;;;;10.10;99.90;;;;;;4992983;28;19926;-76
2023/01/05 17:06:21;;;;;;;;;;;10.10;99.90;;;;;;4990317;28;20344;-77
2023/01/05 17:08:48;;;;;;;;;;;10.10;99.90;;;;;;4989812;28;19980;-77
2023/01/05 17:11:15;;;;;;;;;;;10.10;99.90;;;;;;4992897;28;19938;-77
2023/01/05 17:13:44;;;;;;;;;;;10.10;99.90;;;;;;4989735;28;19926;-77
2023/01/05 17:16:11;;;;;;;;;;;10.10;99.90;;;;;;4990406;28;19930;-77
2023/01/05 17:18:40;;;;;;;;;;;10.10;99.90;;;;;;5022681;28;19973;-74
2023/01/05 17:21:07;;;;;;;;;;;10.10;99.90;;;;;;5008885;28;20122;-78
2023/01/05 17:23:37;;;;;;;;;;;10.10;99.90;;;;;;4993472;28;19926;-77
2023/01/05 17:26:05;;;;;;;;;;;10.10;99.90;;;;;;4995717;28;19926;-78
2023/01/05 17:28:32;;;;;;;;;;;10.10;99.90;;;;;;4990083;28;19933;-77
2023/01/05 17:30:59;;;;;;;;;;;10.10;99.90;;;;;;4996284;28;19980;-78
2023/01/05 17:33:26;;;;;;;;;;;10.10;99.90;;;;;;4988911;28;19973;-78
2023/01/05 17:35:55;;;;;;;;;;;10.10;99.90;;;;;;4994137;28;19926;-75
2023/01/05 17:38:21;;;;;;;;;;;10.10;99.90;;;;;;4991680;28;19933;-74
2023/01/05 17:40:49;;;;;;;;;;;10.10;99.90;;;;;;4989333;28;20467;-72
2023/01/05 17:43:17;;;;;;;;;;;10.10;99.90;;;;;;4994758;28;19932;-71
2023/01/05 17:45:44;;;;;;;;;;;10.10;99.90;;;;;;4997987;28;19953;-73
2023/01/05 17:48:11;;;;;;;;;;;10.10;99.90;;;;;;4991195;28;20400;-74
2023/01/05 17:50:37;;;;;;;;;;;10.10;99.90;;;;;;4986882;28;19985;-73
2023/01/05 17:53:06;;;;;;;;;;;10.10;99.90;;;;;;4985300;28;19940;-73
2023/01/05 17:55:32;;;;;;;;;;;10.10;99.90;;;;;;4994695;28;19933;-73
2023/01/05 17:58:00;;;;;;;;;;;10.10;99.90;;;;;;4994086;28;19926;-73
2023/01/05 18:00:29;;;;;;;;;;;10.10;99.90;;;;;;4994074;28;19934;-75
2023/01/05 18:02:56;;;;;;;;;;;10.10;99.90;;;;;;5012792;28;19926;-74
2023/01/05 18:05:23;;;;;;;;;;;10.10;99.90;;;;;;5009463;28;20408;-75
2023/01/05 18:07:50;;;;;;;;;;;10.20;99.90;;;;;;4992187;28;19925;-75
2023/01/05 18:10:19;;;;;;;;;;;10.20;99.90;;;;;;4996542;28;19926;-80
2023/01/05 18:12:46;;;;;;;;;;;10.10;99.90;;;;;;4992746;28;19934;-80
2023/01/05 18:15:13;;;;;;;;;;;10.20;99.90;;;;;;4992352;28;19926;-70
2023/01/05 18:17:41;;;;;;;;;;;10.20;99.90;;;;;;4992673;28;20344;-74
2023/01/05 18:20:08;;;;;;;;;;;10.20;99.90;;;;;;4987159;28;20433;-74
2023/01/05 18:22:36;;;;;;;;;;;10.30;99.90;;;;;;4993074;28;20300;-77
2023/01/05 18:25:04;;;;;;;;;;;10.20;99.90;;;;;;4989731;28;19934;-75
2023/01/05 18:27:34;;;;;;;;;;;10.30;99.90;;;;;;5026077;28;20308;-74
2023/01/05 18:30:01;;;;;;;;;;;10.40;99.90;;;;;;4996855;28;19933;-76
2023/01/05 18:32:28;;;;;;;;;;;10.40;99.90;;;;;;4992456;28;19930;-76
2023/01/05 18:34:55;;;;;;;;;;;10.40;99.90;;;;;;4992425;28;19926;-77
2023/01/05 18:37:22;;;;;;;;;;;10.40;99.90;;;;;;4991609;28;19933;-77